Time;durP1;ratioP1;P1;durP2;ratioP2;P2;SDS_P1;SDS_P2;PMS_P1;PMS_P2;Temp;Humidity;BMP_temperature;BMP_pressure;BME280_temperature;BME280_humidity;BME280_pressure;Samples;Min_cycle;Max_cycle;Signal;HPM_P1;HPM_P2
2022/11/19 00:00:44;;;;;;;3.13;2.83;;;6.90;99.90;;;;;;5013657;28;20208;-50
2022/11/19 00:03:11;;;;;;;2.93;2.60;;;6.90;99.90;;;;;;5020372;28;20205;-50
2022/11/19 00:05:42;;;;;;;1.50;1.40;;;6.90;99.90;;;;;;5015362;28;20225;-49
2022/11/19 00:08:10;;;;;;;1.80;1.70;;;6.90;99.90;;;;;;5017442;28;20195;-49
2022/11/19 00:10:39;;;;;;;1.47;1.30;;;6.90;99.90;;;;;;5031290;28;20231;-49
2022/11/19 00:13:07;;;;;;;1.73;1.63;;;6.90;99.90;;;;;;5023481;28;20612;-50
2022/11/19 00:15:34;;;;;;;1.80;1.70;;;6.90;99.90;;;;;;5024179;28;20247;-49
2022/11/19 00:18:02;;;;;;;1.80;1.70;;;6.90;99.90;;;;;;5007701;28;20247;-51
2022/11/19 00:20:30;;;;;;;2.00;1.63;;;6.90;99.90;;;;;;5015383;28;20306;-50
2022/11/19 00:22:57;;;;;;;2.43;1.53;;;6.90;99.90;;;;;;5015153;28;20256;-48
2022/11/19 00:25:26;;;;;;;1.97;1.87;;;6.90;99.90;;;;;;5024766;28;20738;-49
2022/11/19 00:27:56;;;;;;;2.90;1.60;;;6.90;99.90;;;;;;5023044;28;20198;-49
2022/11/19 00:30:23;;;;;;;2.77;2.53;;;6.90;99.90;;;;;;5029674;28;20220;-49
2022/11/19 00:32:50;;;;;;;2.57;2.37;;;6.90;99.90;;;;;;5022326;28;20267;-49
2022/11/19 00:35:17;;;;;;;4.00;1.77;;;7.00;99.90;;;;;;5006485;28;20229;-49
2022/11/19 00:37:45;;;;;;;1.77;1.67;;;7.10;99.90;;;;;;5021628;28;20199;-52
2022/11/19 00:40:12;;;;;;;1.63;1.57;;;7.00;99.90;;;;;;5031983;28;20208;-49
2022/11/19 00:43:45;;;;;;;3.50;1.97;;;6.90;99.90;;;;;;5018737;28;20626;-51
2022/11/19 00:45:27;;;;;;;2.17;1.97;;;6.90;99.90;;;;;;5018971;28;20256;-50
2022/11/19 00:47:54;;;;;;;1.97;1.87;;;6.90;99.90;;;;;;5022456;28;20243;-50
2022/11/19 00:50:21;;;;;;;2.53;1.97;;;6.90;99.90;;;;;;5029713;28;20293;-48
2022/11/19 00:52:48;;;;;;;1.87;1.77;;;7.00;99.90;;;;;;5010408;28;20263;-50
2022/11/19 00:55:15;;;;;;;1.90;1.80;;;6.90;99.90;;;;;;5011140;28;20780;-50
2022/11/19 00:57:42;;;;;;;3.93;2.17;;;6.90;99.90;;;;;;5011239;28;20213;-49
2022/11/19 01:00:11;;;;;;;1.90;1.80;;;6.90;99.90;;;;;;5020036;28;20196;-49
2022/11/19 01:02:39;;;;;;;2.47;2.03;;;6.90;99.90;;;;;;5019871;28;20256;-49
2022/11/19 01:05:07;;;;;;;2.40;2.17;;;6.90;99.90;;;;;;5027608;28;20275;-49
2022/11/19 01:07:34;;;;;;;2.23;2.13;;;6.90;99.90;;;;;;5019855;28;20209;-50
2022/11/19 01:10:01;;;;;;;2.17;1.97;;;6.90;99.90;;;;;;5017129;28;20666;-50
2022/11/19 01:12:28;;;;;;;2.63;2.33;;;6.90;99.90;;;;;;5017450;28;20668;-50
2022/11/19 01:14:55;;;;;;;3.93;2.80;;;6.90;99.90;;;;;;5010886;28;20734;-49
2022/11/19 01:17:22;;;;;;;2.57;2.47;;;6.90;99.90;;;;;;5019787;28;20758;-49
2022/11/19 01:19:50;;;;;;;1.93;1.83;;;6.90;99.90;;;;;;5029665;28;20748;-50
2022/11/19 01:22:17;;;;;;;2.20;2.10;;;6.90;99.90;;;;;;5024679;28;20218;-50
2022/11/19 01:24:44;;;;;;;2.43;2.33;;;6.90;99.90;;;;;;5013741;28;20228;-49
2022/11/19 01:27:11;;;;;;;3.00;2.80;;;6.90;99.90;;;;;;5011974;28;20209;-49
2022/11/19 01:29:38;;;;;;;3.30;2.73;;;6.80;99.90;;;;;;5019895;28;20232;-49
2022/11/19 01:32:05;;;;;;;2.27;2.17;;;6.80;99.90;;;;;;5031390;28;20309;-49
2022/11/19 01:34:32;;;;;;;3.30;3.10;;;6.80;99.90;;;;;;5030590;28;20736;-50
2022/11/19 01:37:01;;;;;;;3.33;3.03;;;6.90;99.90;;;;;;5011779;28;20614;-49
2022/11/19 01:39:29;;;;;;;3.33;3.20;;;6.90;99.90;;;;;;5022212;28;20210;-50
2022/11/19 01:41:56;;;;;;;3.00;2.80;;;6.90;99.90;;;;;;5017394;28;20201;-49
2022/11/19 01:44:59;;;;;;;3.27;2.77;;;6.90;99.90;;;;;;5010396;28;20792;-50
2022/11/19 01:47:26;;;;;;;2.50;2.40;;;6.90;99.90;;;;;;5019378;28;20204;-49
2022/11/19 01:49:53;;;;;;;3.20;2.80;;;6.80;99.90;;;;;;5022223;28;20216;-49
2022/11/19 01:52:23;;;;;;;2.60;2.50;;;6.80;99.90;;;;;;5015967;28;20759;-50
2022/11/19 01:54:53;;;;;;;3.43;3.23;;;6.80;99.90;;;;;;5034766;23;20233;-53
2022/11/19 01:57:21;;;;;;;3.93;3.50;;;6.80;99.90;;;;;;5018636;28;20650;-52
2022/11/19 01:59:51;;;;;;;3.63;3.43;;;6.90;99.90;;;;;;5028576;28;20807;-52
2022/11/19 02:02:21;;;;;;;3.83;3.53;;;6.80;99.90;;;;;;5019363;28;20211;-53
2022/11/19 02:04:50;;;;;;;3.83;3.50;;;6.80;99.90;;;;;;5026713;28;20236;-53
2022/11/19 02:07:20;;;;;;;3.80;3.50;;;6.70;99.90;;;;;;5009425;28;20237;-52
2022/11/19 02:09:49;;;;;;;3.90;3.37;;;6.70;99.90;;;;;;5011534;28;20289;-51
2022/11/19 02:12:30;;;;;;;4.33;3.27;;;6.70;99.90;;;;;;5018678;28;20229;-52
2022/11/19 02:15:14;;;;;;;4.73;3.43;;;6.70;99.90;;;;;;5028854;28;20255;-53
2022/11/19 02:18:02;;;;;;;3.10;2.90;;;6.70;99.90;;;;;;5019102;28;20262;-52
2022/11/19 02:20:45;;;;;;;3.00;2.73;;;6.70;99.90;;;;;;5016898;28;20266;-52
2022/11/19 02:23:38;;;;;;;3.70;2.77;;;6.80;99.90;;;;;;5002868;28;20271;-52
2022/11/19 02:26:39;;;;;;;4.27;3.10;;;6.80;99.90;;;;;;5012221;28;20295;-52
2022/11/19 02:29:15;;;;;;;4.43;3.60;;;6.80;99.90;;;;;;5011219;28;20204;-52
2022/11/19 02:31:54;;;;;;;3.23;3.13;;;6.80;99.90;;;;;;5023258;28;20582;-52
2022/11/19 02:34:30;;;;;;;4.30;3.17;;;6.70;99.90;;;;;;5015656;28;20663;-52
2022/11/19 02:37:08;;;;;;;4.27;3.50;;;6.70;99.90;;;;;;5012400;28;20205;-52
2022/11/19 02:39:41;;;;;;;3.37;3.10;;;6.70;99.90;;;;;;5013723;28;20201;-52
2022/11/19 02:42:15;;;;;;;3.50;3.20;;;6.70;99.90;;;;;;5013713;28;20734;-51
2022/11/19 02:45:01;;;;;;;3.13;2.93;;;6.70;99.90;;;;;;5019765;28;20262;-52
2022/11/19 02:47:33;;;;;;;3.37;3.17;;;6.60;99.90;;;;;;5019942;28;20208;-52
2022/11/19 02:50:07;;;;;;;3.57;3.37;;;6.70;99.90;;;;;;5012217;28;20259;-52
2022/11/19 02:52:35;;;;;;;3.47;3.27;;;6.70;99.90;;;;;;5029574;28;20224;-52
2022/11/19 02:55:02;;;;;;;3.17;2.97;;;6.70;99.90;;;;;;5022917;28;20237;-52
2022/11/19 02:57:29;;;;;;;2.87;2.67;;;6.70;99.90;;;;;;5028860;28;20204;-52
2022/11/19 03:05:49;;;;;;;3.43;3.23;;;6.60;99.90;;;;;;4989853;28;20609;-53
2022/11/19 03:08:16;;;;;;;4.57;2.80;;;6.60;99.90;;;;;;5024798;28;20260;-52
2022/11/19 03:10:51;;;;;;;3.10;2.90;;;6.60;99.90;;;;;;5033036;28;20206;-52
2022/11/19 03:19:07;;;;;;;3.20;3.00;;;6.60;99.90;;;;;;5023908;28;20225;-51
2022/11/19 03:21:39;;;;;;;3.17;2.97;;;6.60;99.90;;;;;;5014795;28;20199;-52
2022/11/19 03:24:12;;;;;;;4.13;3.23;;;6.60;99.90;;;;;;5011092;28;20204;-52
2022/11/19 03:26:44;;;;;;;3.27;2.97;;;6.60;99.90;;;;;;5013012;28;20273;-52
2022/11/19 03:29:14;;;;;;;3.00;2.90;;;6.60;99.90;;;;;;5032883;28;20204;-52
2022/11/19 03:31:48;;;;;;;3.73;3.43;;;6.60;99.90;;;;;;5018354;28;20255;-52
2022/11/19 03:34:19;;;;;;;2.53;2.33;;;6.60;99.90;;;;;;5010552;28;20255;-53
2022/11/19 03:36:49;;;;;;;4.60;2.80;;;6.60;99.90;;;;;;5018067;28;20728;-52
2022/11/19 03:39:18;;;;;;;4.13;2.90;;;6.60;99.90;;;;;;5032276;28;20211;-52
2022/11/19 03:41:48;;;;;;;3.27;3.13;;;6.60;99.90;;;;;;5026994;28;20196;-52
2022/11/19 03:44:19;;;;;;;2.73;2.60;;;6.60;99.90;;;;;;5018465;28;20200;-52
2022/11/19 03:46:51;;;;;;;2.40;2.20;;;6.60;99.90;;;;;;5012965;28;20642;-52
2022/11/19 03:49:27;;;;;;;2.83;2.63;;;6.60;99.90;;;;;;5017137;28;20205;-52
2022/11/19 03:51:57;;;;;;;2.97;2.77;;;6.60;99.90;;;;;;5009419;28;20224;-51
2022/11/19 03:54:28;;;;;;;3.60;2.27;;;6.60;99.90;;;;;;5002673;28;20195;-52
2022/11/19 03:56:55;;;;;;;6.30;2.40;;;6.50;99.90;;;;;;5011615;28;20262;-51
2022/11/19 03:59:24;;;;;;;2.63;2.53;;;6.60;99.90;;;;;;5009374;28;20698;-52
2022/11/19 04:01:52;;;;;;;2.60;2.50;;;6.60;99.90;;;;;;4998444;28;20191;-51
2022/11/19 04:04:36;;;;;;;2.57;2.47;;;6.60;99.90;;;;;;4998882;28;20575;-51
2022/11/19 04:07:04;;;;;;;4.20;2.60;;;6.60;99.90;;;;;;5005024;28;20201;-51
2022/11/19 04:09:31;;;;;;;3.33;3.03;;;6.50;99.90;;;;;;5003451;28;20687;-51
2022/11/19 04:11:58;;;;;;;2.37;2.27;;;6.60;99.90;;;;;;4992489;28;20220;-52
2022/11/19 04:14:25;;;;;;;1.90;1.80;;;6.60;99.90;;;;;;5010475;28;21107;-52
2022/11/19 04:16:52;;;;;;;3.27;2.40;;;6.60;99.90;;;;;;5007193;28;20227;-53
2022/11/19 04:19:20;;;;;;;2.90;2.70;;;6.60;99.90;;;;;;4994478;28;20203;-52
2022/11/19 04:21:47;;;;;;;2.70;2.50;;;6.60;99.90;;;;;;4991268;28;20512;-52
2022/11/19 04:24:14;;;;;;;4.60;2.97;;;6.60;99.90;;;;;;5003923;28;20220;-52
2022/11/19 04:26:41;;;;;;;2.73;2.53;;;6.60;99.90;;;;;;5006939;28;20226;-52
2022/11/19 04:29:08;;;;;;;2.70;2.50;;;6.60;99.90;;;;;;5007852;28;20201;-52
2022/11/19 04:31:35;;;;;;;5.20;2.30;;;6.60;99.90;;;;;;5005797;28;20617;-50
2022/11/19 04:34:02;;;;;;;2.37;2.20;;;6.60;99.90;;;;;;5003286;28;20707;-49
2022/11/19 04:36:31;;;;;;;3.77;2.93;;;6.60;99.90;;;;;;5005459;28;20646;-50
2022/11/19 04:38:58;;;;;;;2.73;2.57;;;6.60;99.90;;;;;;5001358;28;20201;-51
2022/11/19 04:41:25;;;;;;;2.80;2.60;;;6.70;99.90;;;;;;4991196;28;20660;-49
2022/11/19 04:43:52;;;;;;;2.90;2.47;;;6.70;99.90;;;;;;5003558;28;20268;-52
2022/11/19 04:46:19;;;;;;;2.47;2.37;;;6.60;99.90;;;;;;4996285;28;20655;-51
2022/11/19 04:48:46;;;;;;;2.00;1.60;;;6.60;99.90;;;;;;4991429;28;20760;-51
2022/11/19 04:51:13;;;;;;;2.27;2.17;;;6.60;99.90;;;;;;4996244;28;21016;-52
2022/11/19 04:53:42;;;;;;;2.83;2.50;;;6.60;99.90;;;;;;5005716;28;20201;-51
2022/11/19 04:56:09;;;;;;;2.60;2.40;;;6.60;99.90;;;;;;4998219;28;20308;-52
2022/11/19 04:58:38;;;;;;;3.03;2.77;;;6.70;99.90;;;;;;5005992;28;20209;-51
2022/11/19 05:01:05;;;;;;;3.03;2.70;;;6.70;99.90;;;;;;5009291;28;20239;-51
2022/11/19 05:03:32;;;;;;;3.60;2.70;;;6.70;99.90;;;;;;4999764;28;20210;-52
2022/11/19 05:06:00;;;;;;;2.70;2.50;;;6.70;99.90;;;;;;4994260;28;20743;-51
2022/11/19 05:08:27;;;;;;;3.37;2.90;;;6.60;99.90;;;;;;4991705;28;20205;-52
2022/11/19 05:10:55;;;;;;;2.97;2.73;;;6.60;99.90;;;;;;5010055;28;20200;-52
2022/11/19 05:13:22;;;;;;;2.57;2.20;;;6.60;99.90;;;;;;5000475;28;20307;-52
2022/11/19 05:15:49;;;;;;;2.40;2.03;;;6.60;99.90;;;;;;5010564;28;20228;-52
2022/11/19 05:18:16;;;;;;;3.83;3.30;;;6.60;99.90;;;;;;4996942;28;20209;-52
2022/11/19 05:20:43;;;;;;;3.87;2.63;;;6.70;99.90;;;;;;4990662;28;20252;-52
2022/11/19 05:23:10;;;;;;;2.13;2.10;;;6.70;99.90;;;;;;4996700;28;20298;-51
2022/11/19 05:25:37;;;;;;;2.77;2.63;;;6.70;99.90;;;;;;5003156;28;20245;-52
2022/11/19 05:28:06;;;;;;;3.27;2.40;;;6.80;99.90;;;;;;5007647;28;20263;-52
2022/11/19 05:30:33;;;;;;;2.90;2.53;;;6.80;99.90;;;;;;5007891;28;20206;-51
2022/11/19 05:33:00;;;;;;;2.20;2.10;;;6.90;99.90;;;;;;4999279;28;20229;-51
2022/11/19 05:35:27;;;;;;;2.17;2.07;;;6.80;99.90;;;;;;5004534;28;20698;-51
2022/11/19 05:37:54;;;;;;;3.53;3.23;;;6.70;99.90;;;;;;5007826;28;20742;-52
2022/11/19 05:40:21;;;;;;;2.20;1.83;;;6.60;99.90;;;;;;5003107;28;20725;-51
2022/11/19 05:42:48;;;;;;;3.03;2.23;;;6.60;99.90;;;;;;5006035;28;20521;-52
2022/11/19 05:45:17;;;;;;;2.73;2.50;;;6.60;99.90;;;;;;5004359;28;20235;-52
2022/11/19 05:47:44;;;;;;;3.03;2.77;;;6.50;99.90;;;;;;4996386;28;20202;-51
2022/11/19 05:50:11;;;;;;;3.10;2.90;;;6.40;99.90;;;;;;4995693;28;20663;-52
2022/11/19 05:52:38;;;;;;;5.10;2.77;;;6.30;99.90;;;;;;4994037;28;20713;-52
2022/11/19 05:55:05;;;;;;;2.47;2.37;;;6.20;99.90;;;;;;4999786;28;20714;-52
2022/11/19 05:57:32;;;;;;;3.00;2.77;;;6.20;99.90;;;;;;5007387;28;20257;-52
2022/11/19 06:00:00;;;;;;;2.97;2.77;;;6.20;99.90;;;;;;5008082;28;20208;-52
2022/11/19 06:02:28;;;;;;;3.03;2.83;;;6.20;99.90;;;;;;5008651;28;20205;-52
2022/11/19 06:04:55;;;;;;;3.07;2.77;;;6.20;99.90;;;;;;5012204;28;20309;-52
2022/11/19 06:07:22;;;;;;;2.30;2.10;;;6.20;99.90;;;;;;5012334;28;20241;-52
2022/11/19 06:09:49;;;;;;;3.43;3.13;;;6.10;99.90;;;;;;4997152;28;20202;-52
2022/11/19 06:12:16;;;;;;;2.70;2.37;;;6.20;99.90;;;;;;4996165;28;20796;-52
2022/11/19 06:14:43;;;;;;;2.33;2.23;;;6.20;99.90;;;;;;5007630;28;20205;-51
2022/11/19 06:17:10;;;;;;;2.23;2.13;;;6.10;99.90;;;;;;5009396;28;20207;-52
2022/11/19 06:19:39;;;;;;;3.47;2.47;;;6.10;99.90;;;;;;5012277;28;20255;-51
2022/11/19 06:22:06;;;;;;;3.07;2.43;;;6.10;99.90;;;;;;5012117;28;20838;-51
2022/11/19 06:24:33;;;;;;;3.43;2.23;;;6.10;99.90;;;;;;5010984;28;20629;-52
2022/11/19 06:27:00;;;;;;;3.33;2.43;;;6.10;99.90;;;;;;5011275;28;20209;-52
2022/11/19 06:29:28;;;;;;;1.93;1.83;;;6.10;99.90;;;;;;5005541;28;20634;-51
2022/11/19 06:31:55;;;;;;;3.57;3.37;;;6.10;99.90;;;;;;5012059;28;20686;-52
2022/11/19 06:34:22;;;;;;;4.10;3.87;;;6.10;99.90;;;;;;5003924;28;20219;-51
2022/11/19 06:36:51;;;;;;;3.70;3.50;;;6.20;99.90;;;;;;5000946;28;20273;-52
2022/11/19 06:39:18;;;;;;;4.37;3.40;;;6.20;99.90;;;;;;5005416;28;20269;-52
2022/11/19 06:41:47;;;;;;;3.87;3.57;;;6.20;99.90;;;;;;5007503;28;20214;-52
2022/11/19 06:44:14;;;;;;;3.57;3.37;;;6.20;99.90;;;;;;5006044;28;20201;-52
2022/11/19 06:46:41;;;;;;;4.00;3.70;;;6.20;99.90;;;;;;5009669;28;20222;-52
2022/11/19 06:49:09;;;;;;;4.30;4.00;;;6.20;99.90;;;;;;5005166;28;20237;-52
2022/11/19 06:51:36;;;;;;;4.80;4.37;;;6.30;99.90;;;;;;5005455;28;20220;-51
2022/11/19 06:54:05;;;;;;;4.07;3.13;;;6.20;99.90;;;;;;5000533;28;20284;-53
2022/11/19 06:56:32;;;;;;;4.53;4.13;;;6.20;99.90;;;;;;5008633;28;20248;-51
2022/11/19 06:58:59;;;;;;;7.73;4.90;;;6.30;99.90;;;;;;5003374;28;20293;-51
2022/11/19 07:01:26;;;;;;;5.70;5.20;;;6.30;99.90;;;;;;5008109;28;20251;-52
2022/11/19 07:03:53;;;;;;;4.90;4.50;;;6.20;99.90;;;;;;5008000;28;20207;-52
2022/11/19 07:06:25;;;;;;;5.00;4.60;;;6.20;99.90;;;;;;4999668;28;20637;-52
2022/11/19 07:08:53;;;;;;;3.30;3.00;;;6.20;99.90;;;;;;5009197;28;20200;-50
2022/11/19 07:11:27;;;;;;;3.60;3.30;;;6.30;99.90;;;;;;5001565;28;20198;-52
2022/11/19 07:13:58;;;;;;;4.10;3.57;;;6.30;99.90;;;;;;4992496;28;20213;-51
2022/11/19 07:16:26;;;;;;;3.90;3.47;;;6.30;99.90;;;;;;4994034;28;20641;-50
2022/11/19 07:18:53;;;;;;;3.80;3.50;;;6.30;99.90;;;;;;4998527;28;20206;-50
2022/11/19 07:21:24;;;;;;;3.60;3.30;;;6.30;99.90;;;;;;4999194;28;20206;-50
2022/11/19 07:23:51;;;;;;;5.03;3.17;;;6.40;99.90;;;;;;5001567;28;20198;-51
2022/11/19 07:26:18;;;;;;;3.90;3.60;;;6.50;99.90;;;;;;4999085;28;20226;-51
2022/11/19 07:28:46;;;;;;;3.73;3.00;;;6.50;99.90;;;;;;4997558;28;21263;-49
2022/11/19 07:31:14;;;;;;;3.83;2.67;;;6.60;99.90;;;;;;5010741;28;20268;-50
2022/11/19 07:33:41;;;;;;;2.80;2.60;;;6.70;99.90;;;;;;5001718;28;20232;-51
2022/11/19 07:36:11;;;;;;;3.27;2.80;;;6.80;99.90;;;;;;5002081;28;20225;-51
2022/11/19 07:38:38;;;;;;;2.67;2.47;;;6.80;99.90;;;;;;4995954;28;20205;-51
2022/11/19 07:42:48;;;;;;;3.50;2.40;;;6.80;99.90;;;;;;5007028;28;20597;-51
2022/11/19 07:43:54;;;;;;;3.43;3.13;;;7.00;99.90;;;;;;5006206;28;20284;-52
2022/11/19 07:46:22;;;;;;;4.20;3.83;;;7.10;99.90;;;;;;4998842;28;20254;-49
2022/11/19 07:48:53;;;;;;;5.37;4.10;;;7.30;99.90;;;;;;5007365;28;20197;-51
2022/11/19 07:51:20;;;;;;;10.90;5.20;;;7.30;99.90;;;;;;4998362;28;20220;-50
2022/11/19 07:53:47;;;;;;;3.30;3.03;;;7.30;99.90;;;;;;5000334;28;20639;-51
2022/11/19 07:56:14;;;;;;;5.27;3.00;;;7.40;99.90;;;;;;5036732;23;20243;-50
2022/11/19 07:58:41;;;;;;;9.10;4.17;;;7.40;99.90;;;;;;5021598;28;20207;-50
2022/11/19 08:01:11;;;;;;;5.63;3.50;;;7.50;99.90;;;;;;5019343;28;20209;-50
2022/11/19 08:03:38;;;;;;;3.47;3.20;;;7.60;99.90;;;;;;5023262;28;20359;-50
2022/11/19 08:06:05;;;;;;;3.83;3.27;;;7.70;99.90;;;;;;5017445;28;20220;-50
2022/11/19 08:08:33;;;;;;;4.87;2.90;;;7.80;99.90;;;;;;5009618;28;20263;-50
2022/11/19 08:11:04;;;;;;;1.63;1.63;;;7.90;99.90;;;;;;5009709;28;20212;-50
2022/11/19 08:13:31;;;;;;;2.50;2.33;;;7.90;99.90;;;;;;5009163;28;20218;-50
2022/11/19 08:16:00;;;;;;;3.03;1.93;;;8.10;99.90;;;;;;5008028;28;20232;-50
2022/11/19 08:18:28;;;;;;;2.73;2.53;;;8.10;99.90;;;;;;5007345;28;20265;-50
2022/11/19 08:20:56;;;;;;;2.30;2.20;;;8.30;99.90;;;;;;5013801;28;20201;-50
2022/11/19 08:23:24;;;;;;;4.00;2.33;;;8.40;99.90;;;;;;5020006;28;21132;-50
2022/11/19 08:25:51;;;;;;;1.67;1.60;;;8.50;99.90;;;;;;5022367;28;20221;-51
2022/11/19 08:28:18;;;;;;;1.13;1.13;;;8.60;99.90;;;;;;5023137;28;20210;-51
2022/11/19 08:30:45;;;;;;;2.60;1.50;;;8.70;99.90;;;;;;5019543;28;20331;-50
2022/11/19 08:33:13;;;;;;;1.47;1.37;;;8.80;99.90;;;;;;5020272;28;20261;-50
2022/11/19 08:35:41;;;;;;;1.70;1.60;;;8.90;99.90;;;;;;5022507;28;20225;-50
2022/11/19 08:38:08;;;;;;;1.67;1.57;;;8.90;99.90;;;;;;5017470;28;20209;-51
2022/11/19 08:40:35;;;;;;;1.40;1.30;;;8.70;99.90;;;;;;5009796;28;20336;-50
2022/11/19 08:43:01;;;;;;;4.93;1.47;;;8.70;99.90;;;;;;5006061;28;20197;-49
2022/11/19 08:45:31;;;;;;;1.67;1.53;;;8.80;99.90;;;;;;5008811;28;20253;-50
2022/11/19 08:47:59;;;;;;;1.40;1.40;;;8.90;99.90;;;;;;5010101;28;20197;-50
2022/11/19 08:50:27;;;;;;;2.93;1.30;;;8.70;99.90;;;;;;5010851;28;20585;-50
2022/11/19 08:52:57;;;;;;;2.93;1.30;;;8.60;99.90;;;;;;5002125;28;20224;-50
2022/11/19 08:55:24;;;;;;;1.73;1.63;;;8.40;99.90;;;;;;5002975;28;20209;-50
2022/11/19 08:57:51;;;;;;;2.17;1.77;;;8.30;99.90;;;;;;5007258;28;20290;-48
2022/11/19 09:00:20;;;;;;;2.30;2.10;;;8.30;99.90;;;;;;5003458;28;20213;-50
2022/11/19 09:02:47;;;;;;;2.67;2.40;;;8.50;99.90;;;;;;5009748;28;20263;-48
2022/11/19 09:05:14;;;;;;;2.07;1.97;;;8.80;99.90;;;;;;5010955;28;20204;-48
2022/11/19 09:07:41;;;;;;;4.00;2.37;;;9.10;99.90;;;;;;5011657;28;20259;-49
2022/11/19 09:10:10;;;;;;;2.60;2.50;;;9.30;99.90;;;;;;5001180;28;20683;-48
2022/11/19 09:12:38;;;;;;;2.13;2.03;;;10.00;99.90;;;;;;5004765;28;20222;-49
2022/11/19 09:15:07;;;;;;;1.97;1.87;;;10.50;99.90;;;;;;5008589;28;20211;-48
2022/11/19 09:17:34;;;;;;;5.43;4.97;;;10.70;99.90;;;;;;5008700;28;20226;-48
2022/11/19 09:20:05;;;;;;;5.57;5.27;;;10.80;99.90;;;;;;5005797;28;20210;-48
2022/11/19 09:22:32;;;;;;;3.70;2.90;;;11.00;99.90;;;;;;5007187;28;20205;-48
2022/11/19 09:24:59;;;;;;;2.27;1.87;;;10.90;99.90;;;;;;5009078;28;20202;-49
2022/11/19 09:27:28;;;;;;;2.40;1.80;;;11.00;99.90;;;;;;5006021;28;20232;-49
2022/11/19 09:29:55;;;;;;;2.47;2.27;;;11.00;99.90;;;;;;5008668;28;20203;-49
2022/11/19 09:32:22;;;;;;;1.87;1.77;;;10.90;99.90;;;;;;5008383;28;20206;-50
2022/11/19 09:34:49;;;;;;;4.63;1.60;;;10.70;99.90;;;;;;5010316;28;20248;-49
2022/11/19 09:37:17;;;;;;;4.73;2.20;;;10.50;99.90;;;;;;5010246;28;20232;-49
2022/11/19 09:39:44;;;;;;;2.27;1.50;;;10.30;99.90;;;;;;5013084;28;20212;-48
2022/11/19 09:42:28;;;;;;;1.13;1.13;;;10.30;99.90;;;;;;5010291;28;20292;-49
2022/11/19 09:45:18;;;;;;;1.17;1.17;;;10.30;99.90;;;;;;5012335;28;20201;-49
2022/11/19 09:48:01;;;;;;;1.57;1.30;;;10.40;99.90;;;;;;5010765;28;20201;-49
2022/11/19 09:50:32;;;;;;;1.33;1.23;;;10.60;99.90;;;;;;5010784;28;20216;-48
2022/11/19 09:53:03;;;;;;;2.67;2.57;;;10.90;99.90;;;;;;5012133;28;20215;-48
2022/11/19 09:55:33;;;;;;;1.83;0.90;;;11.50;99.90;;;;;;5012808;28;20568;-49
2022/11/19 09:58:02;;;;;;;0.70;0.70;;;12.20;99.90;;;;;;5013361;28;20207;-49
2022/11/19 10:00:31;;;;;;;0.80;0.80;;;12.60;99.90;;;;;;5012964;28;20207;-50
2022/11/19 10:03:02;;;;;;;0.87;0.87;;;13.00;99.90;;;;;;5012857;28;20244;-48
2022/11/19 10:05:36;;;;;;;0.80;0.73;;;13.20;99.90;;;;;;5010540;28;20791;-50
2022/11/19 10:08:17;;;;;;;1.00;0.80;;;12.70;99.90;;;;;;5013564;28;20197;-51
2022/11/19 10:10:52;;;;;;;0.60;0.60;;;12.20;99.90;;;;;;5011656;28;20209;-50
2022/11/19 10:13:37;;;;;;;0.50;0.50;;;11.90;99.90;;;;;;5008746;28;20218;-49
2022/11/19 10:16:26;;;;;;;2.10;1.07;;;11.70;99.90;;;;;;5008029;28;20284;-51
2022/11/19 10:19:04;;;;;;;0.70;0.70;;;11.50;99.90;;;;;;5008966;28;20206;-49
2022/11/19 10:21:38;;;;;;;0.90;0.90;;;11.40;99.90;;;;;;5010316;28;20205;-48
2022/11/19 10:24:16;;;;;;;1.57;1.47;;;11.30;99.90;;;;;;5009137;28;20205;-49
2022/11/19 10:26:48;;;;;;;0.90;0.90;;;11.20;99.90;;;;;;5013794;28;20719;-50
2022/11/19 10:29:18;;;;;;;0.77;0.77;;;11.30;99.90;;;;;;5012947;28;20577;-49
2022/11/19 10:31:48;;;;;;;1.10;1.10;;;11.40;99.90;;;;;;5014555;28;20202;-51
2022/11/19 10:34:25;;;;;;;1.23;1.23;;;11.60;99.90;;;;;;5011943;28;20269;-49
2022/11/19 10:36:57;;;;;;;0.90;0.90;;;11.80;99.90;;;;;;5003572;28;20661;-49
2022/11/19 10:39:31;;;;;;;1.27;0.97;;;11.60;99.90;;;;;;5008793;28;20741;-49
2022/11/19 10:42:03;;;;;;;5.23;1.77;;;11.70;99.90;;;;;;5013058;28;20195;-49
2022/11/19 10:44:38;;;;;;;1.53;1.47;;;12.00;99.90;;;;;;5012732;28;20915;-49
2022/11/19 10:47:12;;;;;;;0.97;0.90;;;12.30;99.90;;;;;;5013702;28;20254;-49
2022/11/19 10:49:41;;;;;;;0.90;0.90;;;12.40;99.90;;;;;;5005184;28;20627;-49
2022/11/19 10:52:25;;;;;;;2.63;0.80;;;12.40;99.90;;;;;;5005464;28;20201;-49
2022/11/19 10:54:56;;;;;;;1.40;0.97;;;12.40;99.90;;;;;;5008793;28;20639;-49
2022/11/19 10:57:24;;;;;;;0.50;0.50;;;12.40;99.90;;;;;;5005674;28;21248;-49
2022/11/19 10:59:53;;;;;;;0.80;0.80;;;12.50;99.90;;;;;;5009968;28;20196;-50
2022/11/19 11:02:31;;;;;;;0.70;0.70;;;12.60;99.90;;;;;;5011103;28;20228;-49
2022/11/19 11:05:06;;;;;;;1.53;1.00;;;12.70;99.90;;;;;;5009692;28;20195;-49
2022/11/19 11:07:52;;;;;;;1.37;0.90;;;12.60;99.90;;;;;;5006530;28;20270;-49
2022/11/19 11:10:34;;;;;;;0.77;0.77;;;12.50;99.90;;;;;;5009476;28;20240;-49
2022/11/19 11:16:06;;;;;;;0.90;0.90;;;12.70;99.90;;;;;;5005736;28;20276;-49
2022/11/19 11:18:39;;;;;;;1.93;0.80;;;12.50;99.90;;;;;;5008365;28;20237;-49
2022/11/19 11:21:08;;;;;;;1.30;0.70;;;12.50;99.90;;;;;;5008892;28;20202;-48
2022/11/19 11:23:45;;;;;;;0.43;0.43;;;12.70;99.90;;;;;;5010399;28;20286;-50
2022/11/19 11:26:19;;;;;;;0.50;0.50;;;12.70;99.90;;;;;;5011198;28;20755;-49
2022/11/19 11:28:56;;;;;;;0.70;0.70;;;12.80;99.90;;;;;;5012348;28;20207;-50
2022/11/19 11:31:33;;;;;;;0.60;0.60;;;13.00;99.90;;;;;;5012537;28;20206;-49
2022/11/19 11:34:02;;;;;;;0.73;0.73;;;13.20;99.90;;;;;;5012821;28;20223;-49
2022/11/19 11:36:31;;;;;;;0.60;0.60;;;13.10;99.90;;;;;;5012765;28;20312;-49
2022/11/19 11:39:00;;;;;;;0.93;0.93;;;13.10;99.90;;;;;;5011407;28;20206;-49
2022/11/19 11:41:38;;;;;;;0.80;0.80;;;13.00;99.90;;;;;;5013122;28;20296;-49
2022/11/19 11:44:07;;;;;;;1.07;0.90;;;12.90;99.90;;;;;;5000443;28;20249;-49
2022/11/19 11:46:37;;;;;;;2.40;1.10;;;13.00;99.90;;;;;;5004955;28;20644;-48
2022/11/19 11:49:07;;;;;;;0.70;0.70;;;12.60;99.90;;;;;;5003950;28;20263;-48
2022/11/19 11:51:38;;;;;;;0.70;0.70;;;12.60;99.90;;;;;;5012812;28;20206;-50
2022/11/19 11:54:07;;;;;;;1.43;0.87;;;12.60;99.90;;;;;;4997590;28;20222;-49
2022/11/19 11:56:34;;;;;;;1.00;0.90;;;12.60;99.90;;;;;;5010954;28;20280;-49
2022/11/19 11:59:26;;;;;;;1.90;1.10;;;12.30;99.90;;;;;;5011951;28;20493;-49
2022/11/19 12:01:57;;;;;;;1.10;1.10;;;12.20;99.90;;;;;;5011541;28;20692;-48
2022/11/19 12:04:29;;;;;;;1.70;1.03;;;12.10;99.90;;;;;;5011307;28;20202;-49
2022/11/19 12:07:07;;;;;;;4.63;1.37;;;12.10;99.90;;;;;;5011621;28;20245;-49
2022/11/19 12:09:43;;;;;;;1.83;1.30;;;12.20;99.90;;;;;;5010524;28;20206;-49
2022/11/19 12:12:20;;;;;;;2.33;1.27;;;12.20;99.90;;;;;;5005790;28;20258;-49
2022/11/19 12:14:57;;;;;;;2.23;1.40;;;11.90;99.90;;;;;;5010749;28;20704;-49
2022/11/19 12:17:37;;;;;;;1.70;1.10;;;11.80;99.90;;;;;;5016480;28;20623;-49
2022/11/19 12:20:36;;;;;;;1.43;1.33;;;11.70;99.90;;;;;;5010982;28;20673;-49
2022/11/19 12:23:29;;;;;;;1.10;1.00;;;11.60;99.90;;;;;;5009873;28;20206;-48
2022/11/19 12:26:11;;;;;;;2.20;1.70;;;11.60;99.90;;;;;;5008300;28;20242;-48
2022/11/19 12:29:12;;;;;;;1.47;1.37;;;11.60;99.90;;;;;;5008156;28;20726;-49
2022/11/19 12:31:55;;;;;;;1.93;1.07;;;11.70;99.90;;;;;;5000076;28;20209;-48
2022/11/19 12:34:51;;;;;;;1.70;1.10;;;11.50;99.90;;;;;;5009682;28;20938;-48
2022/11/19 12:37:34;;;;;;;0.90;0.90;;;11.50;99.90;;;;;;5006264;28;20272;-49
2022/11/19 12:40:15;;;;;;;1.87;1.50;;;11.60;99.90;;;;;;5008543;28;20226;-49
2022/11/19 12:42:52;;;;;;;2.27;0.97;;;11.50;99.90;;;;;;5024718;28;20610;-49
2022/11/19 12:45:29;;;;;;;3.63;1.30;;;11.50;99.90;;;;;;5013889;28;20206;-48
2022/11/19 12:48:19;;;;;;;4.10;0.80;;;11.60;99.90;;;;;;5010969;28;20220;-48
2022/11/19 12:50:53;;;;;;;2.63;1.07;;;11.50;99.90;;;;;;5001926;28;20580;-48
2022/11/19 12:53:34;;;;;;;0.80;0.80;;;11.60;99.90;;;;;;5011340;28;20213;-48
2022/11/19 12:56:17;;;;;;;3.47;0.70;;;11.50;99.90;;;;;;5010591;28;20229;-48
2022/11/19 12:58:58;;;;;;;1.40;1.30;;;11.40;99.90;;;;;;5011181;28;20608;-48
2022/11/19 13:01:29;;;;;;;2.40;1.80;;;11.30;99.90;;;;;;5006155;28;20206;-48
2022/11/19 13:04:03;;;;;;;1.43;1.40;;;11.10;99.90;;;;;;5004474;28;20208;-49
2022/11/19 13:06:37;;;;;;;1.20;1.10;;;11.00;99.90;;;;;;5005302;28;20229;-48
2022/11/19 13:09:12;;;;;;;1.73;1.63;;;10.90;99.90;;;;;;4999119;28;20202;-48
2022/11/19 13:11:45;;;;;;;6.90;1.30;;;10.70;99.90;;;;;;5007765;28;20255;-48
2022/11/19 13:14:21;;;;;;;2.23;2.03;;;10.60;99.90;;;;;;5003637;28;20317;-48
2022/11/19 13:16:48;;;;;;;3.30;3.00;;;10.60;99.90;;;;;;5009911;28;20235;-48
2022/11/19 13:19:22;;;;;;;3.63;3.17;;;10.50;99.90;;;;;;5005508;28;20206;-48
2022/11/19 13:21:55;;;;;;;2.80;2.60;;;10.30;99.90;;;;;;5007489;28;20282;-49
2022/11/19 13:24:31;;;;;;;3.23;2.93;;;10.30;99.90;;;;;;5004770;28;20195;-49
2022/11/19 13:27:03;;;;;;;4.63;2.50;;;10.30;99.90;;;;;;5010860;28;20266;-48